Wetterdaten: aktuell Mittwoch, 23.01.2019 12:40
Datum Zeit Temp. A. Feuchte A. Luftdruck Regen Wind Taupunkt Windchill Windben
23.01.2019 12:40 -3,9 C 71 % 1000,4 hPa 0,0 l/m 7,0 km/h (2 Bft) -8,4 C -4,6 C 12,9 km/h (3 Bft)
23.01.2019 12:35 -3,9 C 71 % 1000,5 hPa 0,0 l/m 9,7 km/h (2 Bft) -8,4 C -7,5 C 16,1 km/h (3 Bft)
23.01.2019 12:30 -4,0 C 71 % 1000,4 hPa 0,0 l/m 8,2 km/h (2 Bft) -8,5 C -6,1 C 16,1 km/h (3 Bft)
23.01.2019 12:25 -3,9 C 71 % 1000,5 hPa 0,0 l/m 6,4 km/h (2 Bft) -8,4 C -3,8 C 12,9 km/h (3 Bft)
23.01.2019 12:20 -4,1 C 71 % 1000,4 hPa 0,0 l/m 6,7 km/h (2 Bft) -8,6 C -4,4 C 12,9 km/h (3 Bft)
23.01.2019 12:15 -4,1 C 71 % 1000,5 hPa 0,0 l/m 8,7 km/h (2 Bft) -8,6 C -6,7 C 14,5 km/h (3 Bft)
23.01.2019 12:10 -4,1 C 70 % 1000,6 hPa 0,0 l/m 9,7 km/h (2 Bft) -8,7 C -7,7 C 16,1 km/h (3 Bft)
23.01.2019 12:05 -4,1 C 71 % 1000,4 hPa 0,0 l/m 7,8 km/h (2 Bft) -8,6 C -5,7 C 16,1 km/h (3 Bft)
23.01.2019 12:00 -4,1 C 71 % 1000,5 hPa 0,0 l/m 8,4 km/h (2 Bft) -8,6 C -6,4 C 14,5 km/h (3 Bft)
23.01.2019 11:55 -4,2 C 71 % 1000,5 hPa 0,0 l/m 8,3 km/h (2 Bft) -8,7 C -6,4 C 16,1 km/h (3 Bft)
23.01.2019 11:50 -4,2 C 71 % 1000,6 hPa 0,0 l/m 6,8 km/h (2 Bft) -8,7 C -4,7 C 16,1 km/h (3 Bft)
23.01.2019 11:45 -4,2 C 71 % 1000,6 hPa 0,0 l/m 8,0 km/h (2 Bft) -8,7 C -6,1 C 17,7 km/h (3 Bft)
23.01.2019 11:40 -4,2 C 71 % 1000,7 hPa 0,0 l/m 10,7 km/h (2 Bft) -8,7 C -8,7 C 17,7 km/h (3 Bft)
23.01.2019 11:35 -4,3 C 71 % 1000,7 hPa 0,0 l/m 6,1 km/h (2 Bft) -8,7 C -4,3 C 16,1 km/h (3 Bft)
23.01.2019 11:30 -4,3 C 71 % 1000,7 hPa 0,0 l/m 12,1 km/h (2 Bft) -8,7 C -10,0 C 20,9 km/h (4 Bft)
23.01.2019 11:25 -4,3 C 71 % 1000,8 hPa 0,0 l/m 16,5 km/h (3 Bft) -8,7 C -13,2 C 24,1 km/h (4 Bft)
23.01.2019 11:20 -4,3 C 71 % 1000,7 hPa 0,0 l/m 10,5 km/h (2 Bft) -8,7 C -8,7 C 17,7 km/h (3 Bft)
23.01.2019 11:15 -4,3 C 71 % 1000,8 hPa 0,0 l/m 12,7 km/h (3 Bft) -8,7 C -10,5 C 19,3 km/h (3 Bft)
23.01.2019 11:10 -4,3 C 71 % 1000,8 hPa 0,0 l/m 14,6 km/h (3 Bft) -8,7 C -11,9 C 24,1 km/h (4 Bft)
23.01.2019 11:05 -4,2 C 71 % 1000,9 hPa 0,0 l/m 12,0 km/h (2 Bft) -8,7 C -9,8 C 17,7 km/h (3 Bft)
23.01.2019 11:00 -4,2 C 72 % 1000,8 hPa 0,0 l/m 10,8 km/h (2 Bft) -8,5 C -8,8 C 19,3 km/h (3 Bft)
_ Min-Zeit 08:25 12:10 12:05 - 00:45 11:10 11:25 00:45
Minimum _ -4,5 C 70 % 1000,4 hPa - 3,0 km/h (1 Bft) -8,7 C -13,2 C 6,4 km/h (2 Bft)
_ Max-Zeit 00:00 00:00 00:00 00:00 11:25 00:00 00:05 11:10
Maximum _ -3,4 C 76 % 1005,7 hPa 0,0 l/m 16,5 km/h
O (3 Bft)
-7,0 C -3,4 C 24,1 km/h
O (4 Bft)
Durchschnitt _ -4,1 C 74 % 1002,3 hPa #0,0 l/m 7,1 km/h (2 Bft) -8,0 C -5,5 C 14,0 km/h (3 Bft)